sensor_id;sensor_type;location;lat;lon;timestamp;pressure;altitude;pressure_sealevel;temperature;humidity
7888;BME280;3989;48.810;9.208;2022-09-21T00:01:11;99628.34;;;5.84;100.00
7888;BME280;3989;48.810;9.208;2022-09-21T00:03:38;99603.78;;;5.61;100.00
7888;BME280;3989;48.810;9.208;2022-09-21T00:06:08;99630.94;;;5.74;100.00
7888;BME280;3989;48.810;9.208;2022-09-21T00:08:35;99606.03;;;5.66;100.00
7888;BME280;3989;48.810;9.208;2022-09-21T00:11:02;99618.91;;;5.70;100.00
7888;BME280;3989;48.810;9.208;2022-09-21T00:13:30;99631.63;;;5.76;100.00
7888;BME280;3989;48.810;9.208;2022-09-21T00:15:59;99615.56;;;5.68;100.00
7888;BME280;3989;48.810;9.208;2022-09-21T00:18:26;99627.63;;;5.61;100.00
7888;BME280;3989;48.810;9.208;2022-09-21T00:20:53;99627.13;;;5.56;100.00
7888;BME280;3989;48.810;9.208;2022-09-21T00:23:19;99631.97;;;5.51;100.00
7888;BME280;3989;48.810;9.208;2022-09-21T00:25:48;99621.81;;;5.36;100.00
7888;BME280;3989;48.810;9.208;2022-09-21T00:28:14;99625.75;;;5.41;100.00
7888;BME280;3989;48.810;9.208;2022-09-21T00:30:41;99626.34;;;5.45;100.00
7888;BME280;3989;48.810;9.208;2022-09-21T00:33:09;99612.78;;;5.38;100.00
7888;BME280;3989;48.810;9.208;2022-09-21T00:35:36;99624.75;;;5.53;100.00
7888;BME280;3989;48.810;9.208;2022-09-21T00:38:03;99591.84;;;5.35;100.00
7888;BME280;3989;48.810;9.208;2022-09-21T00:40:30;99625.25;;;5.47;100.00
7888;BME280;3989;48.810;9.208;2022-09-21T00:43:11;99622.41;;;5.39;100.00
7888;BME280;3989;48.810;9.208;2022-09-21T00:45:38;99622.94;;;5.22;100.00
7888;BME280;3989;48.810;9.208;2022-09-21T00:48:04;99607.06;;;5.11;100.00
7888;BME280;3989;48.810;9.208;2022-09-21T00:50:34;99626.44;;;5.11;100.00
7888;BME280;3989;48.810;9.208;2022-09-21T00:53:03;99596.94;;;4.84;100.00
7888;BME280;3989;48.810;9.208;2022-09-21T00:55:32;99619.59;;;5.09;100.00
7888;BME280;3989;48.810;9.208;2022-09-21T00:58:04;99603.28;;;5.04;100.00
7888;BME280;3989;48.810;9.208;2022-09-21T01:00:32;99622.69;;;5.14;100.00
7888;BME280;3989;48.810;9.208;2022-09-21T01:02:59;99625.22;;;5.15;100.00
7888;BME280;3989;48.810;9.208;2022-09-21T01:05:26;99625.69;;;5.20;100.00
7888;BME280;3989;48.810;9.208;2022-09-21T01:07:55;99626.44;;;5.22;100.00
7888;BME280;3989;48.810;9.208;2022-09-21T01:10:23;99620.53;;;5.19;100.00
7888;BME280;3989;48.810;9.208;2022-09-21T01:13:09;99624.63;;;5.23;100.00
7888;BME280;3989;48.810;9.208;2022-09-21T01:15:44;99592.19;;;4.99;100.00
7888;BME280;3989;48.810;9.208;2022-09-21T01:18:19;99616.84;;;5.10;100.00
7888;BME280;3989;48.810;9.208;2022-09-21T01:21:10;99628.13;;;5.12;100.00
7888;BME280;3989;48.810;9.208;2022-09-21T01:26:46;99624.19;;;5.07;100.00
7888;BME280;3989;48.810;9.208;2022-09-21T01:29:22;99599.69;;;4.94;100.00
7888;BME280;3989;48.810;9.208;2022-09-21T01:31:55;99627.53;;;5.09;100.00
7888;BME280;3989;48.810;9.208;2022-09-21T01:34:27;99636.69;;;5.05;100.00
7888;BME280;3989;48.810;9.208;2022-09-21T01:36:57;99625.97;;;5.06;100.00
7888;BME280;3989;48.810;9.208;2022-09-21T01:39:26;99596.69;;;4.87;100.00
7888;BME280;3989;48.810;9.208;2022-09-21T01:41:55;99613.59;;;4.96;100.00
7888;BME280;3989;48.810;9.208;2022-09-21T01:44:27;99599.22;;;4.78;100.00
7888;BME280;3989;48.810;9.208;2022-09-21T01:46:59;99593.94;;;4.78;100.00
7888;BME280;3989;48.810;9.208;2022-09-21T01:49:30;99513.97;;;4.20;100.00
7888;BME280;3989;48.810;9.208;2022-09-21T01:52:01;99438.22;;;3.87;100.00
7888;BME280;3989;48.810;9.208;2022-09-21T01:54:35;99638.13;;;5.09;100.00
7888;BME280;3989;48.810;9.208;2022-09-21T01:57:07;99636.31;;;5.09;100.00
7888;BME280;3989;48.810;9.208;2022-09-21T01:59:43;99637.03;;;5.11;100.00
7888;BME280;3989;48.810;9.208;2022-09-21T02:02:15;99498.69;;;4.23;100.00
7888;BME280;3989;48.810;9.208;2022-09-21T02:04:43;99630.56;;;4.93;100.00
7888;BME280;3989;48.810;9.208;2022-09-21T02:07:10;99578.47;;;4.62;100.00
7888;BME280;3989;48.810;9.208;2022-09-21T02:09:37;99639.09;;;4.86;100.00
7888;BME280;3989;48.810;9.208;2022-09-21T02:12:04;99608.34;;;4.62;100.00
7888;BME280;3989;48.810;9.208;2022-09-21T02:14:31;99635.03;;;4.70;100.00
7888;BME280;3989;48.810;9.208;2022-09-21T02:17:06;99607.75;;;4.59;100.00
7888;BME280;3989;48.810;9.208;2022-09-21T02:19:44;99631.91;;;4.76;100.00
7888;BME280;3989;48.810;9.208;2022-09-21T02:22:14;99575.22;;;4.47;100.00
7888;BME280;3989;48.810;9.208;2022-09-21T02:24:44;99630.81;;;4.90;100.00
7888;BME280;3989;48.810;9.208;2022-09-21T02:27:19;99616.75;;;4.78;100.00
7888;BME280;3989;48.810;9.208;2022-09-21T02:29:51;99439.44;;;3.61;100.00
7888;BME280;3989;48.810;9.208;2022-09-21T02:32:27;99623.38;;;4.73;100.00
7888;BME280;3989;48.810;9.208;2022-09-21T02:35:01;99483.38;;;3.84;100.00
7888;BME280;3989;48.810;9.208;2022-09-21T02:37:34;99629.38;;;4.75;100.00
7888;BME280;3989;48.810;9.208;2022-09-21T02:40:09;99632.16;;;4.73;100.00
7888;BME280;3989;48.810;9.208;2022-09-21T02:42:40;99619.91;;;4.61;100.00
7888;BME280;3989;48.810;9.208;2022-09-21T02:45:12;99620.50;;;4.65;100.00
7888;BME280;3989;48.810;9.208;2022-09-21T02:47:45;99604.88;;;4.51;100.00
7888;BME280;3989;48.810;9.208;2022-09-21T02:50:18;99512.41;;;3.84;100.00
7888;BME280;3989;48.810;9.208;2022-09-21T02:52:47;99620.38;;;4.44;100.00
7888;BME280;3989;48.810;9.208;2022-09-21T02:55:16;99568.97;;;4.04;100.00
7888;BME280;3989;48.810;9.208;2022-09-21T02:57:44;99484.41;;;3.48;100.00
7888;BME280;3989;48.810;9.208;2022-09-21T03:00:14;99578.91;;;4.11;100.00
7888;BME280;3989;48.810;9.208;2022-09-21T03:02:43;99632.28;;;4.39;100.00
7888;BME280;3989;48.810;9.208;2022-09-21T03:05:12;99577.84;;;4.03;100.00
7888;BME280;3989;48.810;9.208;2022-09-21T03:07:39;99630.22;;;4.31;100.00
7888;BME280;3989;48.810;9.208;2022-09-21T03:10:07;99622.06;;;4.34;100.00
7888;BME280;3989;48.810;9.208;2022-09-21T03:12:33;99545.16;;;3.82;100.00
7888;BME280;3989;48.810;9.208;2022-09-21T03:15:00;99529.53;;;3.79;100.00
7888;BME280;3989;48.810;9.208;2022-09-21T03:17:27;99572.44;;;4.04;100.00
7888;BME280;3989;48.810;9.208;2022-09-21T03:19:55;99611.97;;;4.28;100.00
7888;BME280;3989;48.810;9.208;2022-09-21T03:22:22;99621.34;;;4.32;100.00
7888;BME280;3989;48.810;9.208;2022-09-21T03:24:49;99555.84;;;3.91;100.00
7888;BME280;3989;48.810;9.208;2022-09-21T03:27:17;99574.69;;;3.98;100.00
7888;BME280;3989;48.810;9.208;2022-09-21T03:29:45;99625.06;;;4.30;100.00
7888;BME280;3989;48.810;9.208;2022-09-21T03:32:12;99631.53;;;4.26;100.00
7888;BME280;3989;48.810;9.208;2022-09-21T03:34:39;99630.09;;;4.21;100.00
7888;BME280;3989;48.810;9.208;2022-09-21T03:37:08;99644.25;;;4.09;100.00
7888;BME280;3989;48.810;9.208;2022-09-21T03:39:35;99658.63;;;4.05;100.00
7888;BME280;3989;48.810;9.208;2022-09-21T03:42:02;99606.47;;;3.85;100.00
7888;BME280;3989;48.810;9.208;2022-09-21T03:44:29;99599.06;;;3.90;100.00
7888;BME280;3989;48.810;9.208;2022-09-21T03:46:56;99623.72;;;4.13;100.00
7888;BME280;3989;48.810;9.208;2022-09-21T03:49:22;99646.56;;;4.25;100.00
7888;BME280;3989;48.810;9.208;2022-09-21T03:51:49;99595.69;;;3.88;100.00
7888;BME280;3989;48.810;9.208;2022-09-21T03:54:17;99646.28;;;4.17;100.00
7888;BME280;3989;48.810;9.208;2022-09-21T03:56:43;99522.84;;;3.40;100.00
7888;BME280;3989;48.810;9.208;2022-09-21T03:59:10;99581.59;;;3.65;100.00
7888;BME280;3989;48.810;9.208;2022-09-21T04:01:37;99620.06;;;3.92;100.00
7888;BME280;3989;48.810;9.208;2022-09-21T04:04:04;99478.66;;;3.08;100.00
7888;BME280;3989;48.810;9.208;2022-09-21T04:06:30;99630.16;;;3.98;100.00
7888;BME280;3989;48.810;9.208;2022-09-21T04:08:57;99626.09;;;3.94;100.00
7888;BME280;3989;48.810;9.208;2022-09-21T04:11:25;99570.94;;;3.67;100.00
7888;BME280;3989;48.810;9.208;2022-09-21T04:13:52;99586.78;;;3.78;100.00
7888;BME280;3989;48.810;9.208;2022-09-21T04:16:21;99621.16;;;3.89;100.00
7888;BME280;3989;48.810;9.208;2022-09-21T04:18:48;99657.69;;;4.06;100.00
7888;BME280;3989;48.810;9.208;2022-09-21T04:21:15;99629.78;;;3.91;100.00
7888;BME280;3989;48.810;9.208;2022-09-21T04:23:42;99654.31;;;4.04;100.00
7888;BME280;3989;48.810;9.208;2022-09-21T04:26:19;99660.94;;;4.10;100.00
7888;BME280;3989;48.810;9.208;2022-09-21T04:28:47;99588.78;;;3.63;100.00
7888;BME280;3989;48.810;9.208;2022-09-21T04:31:14;99506.94;;;3.06;100.00
7888;BME280;3989;48.810;9.208;2022-09-21T04:33:41;99640.94;;;3.84;100.00
7888;BME280;3989;48.810;9.208;2022-09-21T04:36:07;99665.56;;;3.95;100.00
7888;BME280;3989;48.810;9.208;2022-09-21T04:38:34;99650.91;;;3.91;100.00
7888;BME280;3989;48.810;9.208;2022-09-21T04:41:00;99580.00;;;3.52;100.00
7888;BME280;3989;48.810;9.208;2022-09-21T04:43:27;99617.72;;;3.65;100.00
7888;BME280;3989;48.810;9.208;2022-09-21T04:45:55;99444.75;;;2.56;100.00
7888;BME280;3989;48.810;9.208;2022-09-21T04:48:22;99677.56;;;3.88;100.00
7888;BME280;3989;48.810;9.208;2022-09-21T04:50:49;99665.81;;;3.92;100.00
7888;BME280;3989;48.810;9.208;2022-09-21T04:53:16;99662.06;;;3.84;100.00
7888;BME280;3989;48.810;9.208;2022-09-21T04:55:43;99640.75;;;3.63;100.00
7888;BME280;3989;48.810;9.208;2022-09-21T04:58:10;99652.03;;;3.65;100.00
7888;BME280;3989;48.810;9.208;2022-09-21T05:00:37;99668.44;;;3.81;100.00
7888;BME280;3989;48.810;9.208;2022-09-21T05:03:05;99666.59;;;3.82;100.00
7888;BME280;3989;48.810;9.208;2022-09-21T05:05:31;99649.13;;;3.57;100.00
7888;BME280;3989;48.810;9.208;2022-09-21T05:07:58;99594.13;;;3.16;100.00
7888;BME280;3989;48.810;9.208;2022-09-21T05:10:25;99603.06;;;3.26;100.00
7888;BME280;3989;48.810;9.208;2022-09-21T05:12:50;99475.66;;;2.54;100.00
7888;BME280;3989;48.810;9.208;2022-09-21T05:15:17;99684.13;;;3.83;100.00
7888;BME280;3989;48.810;9.208;2022-09-21T05:17:44;99521.06;;;2.82;100.00
7888;BME280;3989;48.810;9.208;2022-09-21T05:20:12;99693.13;;;3.80;100.00
7888;BME280;3989;48.810;9.208;2022-09-21T05:22:39;99684.03;;;3.84;100.00
7888;BME280;3989;48.810;9.208;2022-09-21T05:25:07;99566.91;;;3.15;100.00
7888;BME280;3989;48.810;9.208;2022-09-21T05:27:34;99676.78;;;3.75;100.00
7888;BME280;3989;48.810;9.208;2022-09-21T05:30:01;99670.56;;;3.76;100.00
7888;BME280;3989;48.810;9.208;2022-09-21T05:32:41;99658.81;;;3.80;100.00
7888;BME280;3989;48.810;9.208;2022-09-21T05:35:19;99651.75;;;3.81;100.00
7888;BME280;3989;48.810;9.208;2022-09-21T05:37:53;99687.00;;;4.14;100.00
7888;BME280;3989;48.810;9.208;2022-09-21T05:40:23;99642.66;;;3.96;100.00
7888;BME280;3989;48.810;9.208;2022-09-21T05:42:50;99601.94;;;3.87;100.00
7888;BME280;3989;48.810;9.208;2022-09-21T05:45:18;99639.56;;;4.13;100.00
7888;BME280;3989;48.810;9.208;2022-09-21T05:47:53;99633.22;;;4.15;100.00
7888;BME280;3989;48.810;9.208;2022-09-21T05:50:32;99485.91;;;3.40;100.00
7888;BME280;3989;48.810;9.208;2022-09-21T05:55:55;99639.97;;;4.42;100.00
7888;BME280;3989;48.810;9.208;2022-09-21T05:58:29;99453.44;;;3.39;100.00
7888;BME280;3989;48.810;9.208;2022-09-21T06:01:12;99601.75;;;4.57;100.00
7888;BME280;3989;48.810;9.208;2022-09-21T06:03:44;99550.84;;;4.33;100.00
7888;BME280;3989;48.810;9.208;2022-09-21T06:06:15;99662.19;;;5.06;100.00
7888;BME280;3989;48.810;9.208;2022-09-21T06:08:41;99624.34;;;4.83;100.00
7888;BME280;3989;48.810;9.208;2022-09-21T06:11:08;99669.97;;;5.29;100.00
7888;BME280;3989;48.810;9.208;2022-09-21T06:13:38;99720.66;;;5.57;100.00
7888;BME280;3989;48.810;9.208;2022-09-21T06:16:14;99590.66;;;4.96;100.00
7888;BME280;3989;48.810;9.208;2022-09-21T06:18:44;99614.19;;;5.10;100.00
7888;BME280;3989;48.810;9.208;2022-09-21T06:21:15;99507.44;;;4.57;100.00
7888;BME280;3989;48.810;9.208;2022-09-21T06:23:45;99727.56;;;5.91;100.00
7888;BME280;3989;48.810;9.208;2022-09-21T06:26:12;99600.81;;;5.23;100.00
7888;BME280;3989;48.810;9.208;2022-09-21T06:28:43;99687.59;;;5.83;100.00
7888;BME280;3989;48.810;9.208;2022-09-21T06:31:10;99732.03;;;6.11;100.00
7888;BME280;3989;48.810;9.208;2022-09-21T06:33:37;99710.00;;;6.11;100.00
7888;BME280;3989;48.810;9.208;2022-09-21T06:36:07;99712.94;;;6.28;100.00
7888;BME280;3989;48.810;9.208;2022-09-21T06:38:39;99379.69;;;4.36;100.00
7888;BME280;3989;48.810;9.208;2022-09-21T06:41:08;99507.53;;;5.10;100.00
7888;BME280;3989;48.810;9.208;2022-09-21T06:43:40;99506.25;;;5.25;100.00
7888;BME280;3989;48.810;9.208;2022-09-21T06:46:07;99733.38;;;6.58;100.00
7888;BME280;3989;48.810;9.208;2022-09-21T06:48:37;99535.72;;;5.52;100.00
7888;BME280;3989;48.810;9.208;2022-09-21T06:51:12;99717.25;;;6.71;100.00
7888;BME280;3989;48.810;9.208;2022-09-21T06:53:48;99739.94;;;6.84;100.00
7888;BME280;3989;48.810;9.208;2022-09-21T06:56:24;99528.31;;;5.88;100.00
7888;BME280;3989;48.810;9.208;2022-09-21T06:58:54;99671.72;;;6.75;100.00
7888;BME280;3989;48.810;9.208;2022-09-21T07:01:25;99524.88;;;5.97;100.00
7888;BME280;3989;48.810;9.208;2022-09-21T07:03:52;99683.41;;;6.94;100.00
7888;BME280;3989;48.810;9.208;2022-09-21T07:06:19;99572.41;;;6.49;100.00
7888;BME280;3989;48.810;9.208;2022-09-21T07:08:56;99608.53;;;6.90;100.00
7888;BME280;3989;48.810;9.208;2022-09-21T07:11:29;99527.16;;;6.51;100.00
7888;BME280;3989;48.810;9.208;2022-09-21T07:13:59;99618.94;;;7.12;100.00
7888;BME280;3989;48.810;9.208;2022-09-21T07:16:26;99579.78;;;7.05;100.00
7888;BME280;3989;48.810;9.208;2022-09-21T07:18:56;99664.03;;;7.62;100.00
7888;BME280;3989;48.810;9.208;2022-09-21T07:21:34;99600.94;;;7.35;100.00
7888;BME280;3989;48.810;9.208;2022-09-21T07:24:06;99549.78;;;7.04;100.00
7888;BME280;3989;48.810;9.208;2022-09-21T07:26:33;99658.00;;;7.88;100.00
7888;BME280;3989;48.810;9.208;2022-09-21T07:29:01;99708.09;;;8.31;100.00
7888;BME280;3989;48.810;9.208;2022-09-21T07:31:33;99557.50;;;7.46;100.00
7888;BME280;3989;48.810;9.208;2022-09-21T07:34:14;99593.94;;;7.82;100.00
7888;BME280;3989;48.810;9.208;2022-09-21T07:36:49;99717.41;;;8.64;100.00
7888;BME280;3989;48.810;9.208;2022-09-21T07:39:17;99668.59;;;8.46;100.00
7888;BME280;3989;48.810;9.208;2022-09-21T07:41:47;99526.97;;;7.78;100.00
7888;BME280;3989;48.810;9.208;2022-09-21T07:44:19;99710.16;;;9.03;100.00
7888;BME280;3989;48.810;9.208;2022-09-21T07:46:49;99715.13;;;9.16;100.00
7888;BME280;3989;48.810;9.208;2022-09-21T07:49:27;99732.47;;;9.29;100.00
7888;BME280;3989;48.810;9.208;2022-09-21T07:51:54;99552.16;;;8.30;100.00
7888;BME280;3989;48.810;9.208;2022-09-21T07:54:26;99739.13;;;9.43;100.00
7888;BME280;3989;48.810;9.208;2022-09-21T07:56:58;99709.28;;;9.57;100.00
7888;BME280;3989;48.810;9.208;2022-09-21T07:59:45;99713.38;;;9.79;100.00
7888;BME280;3989;48.810;9.208;2022-09-21T08:02:23;99726.03;;;9.94;100.00
7888;BME280;3989;48.810;9.208;2022-09-21T08:04:53;99626.31;;;9.52;100.00
7888;BME280;3989;48.810;9.208;2022-09-21T08:07:27;99700.13;;;10.22;100.00
7888;BME280;3989;48.810;9.208;2022-09-21T08:10:28;99557.34;;;9.49;100.00
7888;BME280;3989;48.810;9.208;2022-09-21T08:13:09;99727.59;;;10.58;100.00
7888;BME280;3989;48.810;9.208;2022-09-21T08:19:32;99708.19;;;10.74;100.00
7888;BME280;3989;48.810;9.208;2022-09-21T08:22:29;99717.97;;;10.91;100.00
7888;BME280;3989;48.810;9.208;2022-09-21T08:25:20;99740.81;;;11.11;100.00
7888;BME280;3989;48.810;9.208;2022-09-21T08:31:16;99714.91;;;11.45;100.00
7888;BME280;3989;48.810;9.208;2022-09-21T08:40:01;99724.91;;;11.93;100.00
7888;BME280;3989;48.810;9.208;2022-09-21T08:42:41;99733.16;;;12.08;100.00
7888;BME280;3989;48.810;9.208;2022-09-21T08:45:27;99601.66;;;11.63;100.00
7888;BME280;3989;48.810;9.208;2022-09-21T08:48:18;99714.94;;;12.44;100.00
7888;BME280;3989;48.810;9.208;2022-09-21T08:51:44;99622.91;;;11.80;100.00
7888;BME280;3989;48.810;9.208;2022-09-21T08:54:26;99721.78;;;12.46;100.00
7888;BME280;3989;48.810;9.208;2022-09-21T08:57:16;99725.47;;;12.53;100.00
7888;BME280;3989;48.810;9.208;2022-09-21T09:00:11;99714.91;;;12.60;100.00
7888;BME280;3989;48.810;9.208;2022-09-21T09:06:52;99538.00;;;11.90;100.00
7888;BME280;3989;48.810;9.208;2022-09-21T09:10:13;99698.91;;;12.99;100.00
7888;BME280;3989;48.810;9.208;2022-09-21T09:17:21;99423.69;;;11.68;100.00
7888;BME280;3989;48.810;9.208;2022-09-21T09:23:36;99551.09;;;12.48;100.00
7888;BME280;3989;48.810;9.208;2022-09-21T09:26:47;99571.75;;;12.71;100.00
7888;BME280;3989;48.810;9.208;2022-09-21T09:29:48;99530.16;;;12.52;100.00
7888;BME280;3989;48.810;9.208;2022-09-21T09:32:50;99696.53;;;13.59;100.00
7888;BME280;3989;48.810;9.208;2022-09-21T09:36:13;99677.47;;;13.77;100.00
7888;BME280;3989;48.810;9.208;2022-09-21T09:39:21;99700.59;;;13.86;100.00
7888;BME280;3989;48.810;9.208;2022-09-21T09:48:40;99686.84;;;14.26;100.00
7888;BME280;3989;48.810;9.208;2022-09-21T09:51:52;99678.16;;;14.47;100.00
7888;BME280;3989;48.810;9.208;2022-09-21T09:57:47;99679.84;;;14.62;95.69
7888;BME280;3989;48.810;9.208;2022-09-21T10:00:17;99666.41;;;14.62;98.99
7888;BME280;3989;48.810;9.208;2022-09-21T10:02:52;99657.50;;;14.77;98.49
7888;BME280;3989;48.810;9.208;2022-09-21T10:05:22;99671.72;;;15.00;93.24
7888;BME280;3989;48.810;9.208;2022-09-21T10:07:50;99529.69;;;14.38;90.90
7888;BME280;3989;48.810;9.208;2022-09-21T10:10:25;99554.88;;;14.81;86.04
7888;BME280;3989;48.810;9.208;2022-09-21T10:13:09;99663.44;;;15.60;75.48
7888;BME280;3989;48.810;9.208;2022-09-21T10:15:45;99456.16;;;14.54;73.48
7888;BME280;3989;48.810;9.208;2022-09-21T10:18:22;99660.22;;;15.71;75.54
7888;BME280;3989;48.810;9.208;2022-09-21T10:21:00;99591.09;;;15.50;69.38
7888;BME280;3989;48.810;9.208;2022-09-21T10:23:30;99665.50;;;16.00;63.08
7888;BME280;3989;48.810;9.208;2022-09-21T10:26:01;99570.91;;;15.82;66.06
7888;BME280;3989;48.810;9.208;2022-09-21T10:28:33;99590.91;;;16.15;59.53
7888;BME280;3989;48.810;9.208;2022-09-21T10:31:18;99601.91;;;16.48;60.00
7888;BME280;3989;48.810;9.208;2022-09-21T10:33:51;99618.66;;;16.71;58.13
7888;BME280;3989;48.810;9.208;2022-09-21T10:36:31;99645.72;;;17.25;64.92
7888;BME280;3989;48.810;9.208;2022-09-21T10:39:18;99478.63;;;16.22;65.03
7888;BME280;3989;48.810;9.208;2022-09-21T10:42:11;99534.31;;;15.88;70.47
7888;BME280;3989;48.810;9.208;2022-09-21T10:44:46;99632.47;;;16.34;75.38
7888;BME280;3989;48.810;9.208;2022-09-21T10:47:20;99636.78;;;16.07;77.25
7888;BME280;3989;48.810;9.208;2022-09-21T10:49:52;99605.06;;;15.82;81.45
7888;BME280;3989;48.810;9.208;2022-09-21T10:52:24;99625.31;;;16.20;80.89
7888;BME280;3989;48.810;9.208;2022-09-21T10:55:00;99614.53;;;16.20;77.06
7888;BME280;3989;48.810;9.208;2022-09-21T10:57:28;99492.63;;;15.35;74.28
7888;BME280;3989;48.810;9.208;2022-09-21T11:00:11;99551.94;;;15.48;78.29
7888;BME280;3989;48.810;9.208;2022-09-21T11:02:54;99648.13;;;15.82;78.83
7888;BME280;3989;48.810;9.208;2022-09-21T11:05:25;99642.63;;;15.68;81.53
7888;BME280;3989;48.810;9.208;2022-09-21T11:07:59;99633.94;;;15.52;77.93
7888;BME280;3989;48.810;9.208;2022-09-21T11:10:32;99357.03;;;13.64;82.60
7888;BME280;3989;48.810;9.208;2022-09-21T11:13:19;99476.81;;;14.39;86.26
7888;BME280;3989;48.810;9.208;2022-09-21T11:16:12;99637.09;;;15.55;83.33
7888;BME280;3989;48.810;9.208;2022-09-21T11:19:07;99623.16;;;15.66;77.69
7888;BME280;3989;48.810;9.208;2022-09-21T11:21:49;99617.00;;;15.72;69.69
7888;BME280;3989;48.810;9.208;2022-09-21T11:24:28;99562.81;;;15.40;65.46
7888;BME280;3989;48.810;9.208;2022-09-21T11:27:04;99465.22;;;15.24;68.27
7888;BME280;3989;48.810;9.208;2022-09-21T11:30:21;99399.78;;;15.17;66.16
7888;BME280;3989;48.810;9.208;2022-09-21T11:33:28;99521.03;;;16.42;57.66
7888;BME280;3989;48.810;9.208;2022-09-21T11:36:36;99516.03;;;16.39;57.21
7888;BME280;3989;48.810;9.208;2022-09-21T11:39:22;99619.28;;;16.46;58.17
7888;BME280;3989;48.810;9.208;2022-09-21T11:42:35;99463.03;;;15.35;59.52
7888;BME280;3989;48.810;9.208;2022-09-21T11:45:25;99472.81;;;15.42;59.13
7888;BME280;3989;48.810;9.208;2022-09-21T11:48:17;99496.56;;;15.53;58.72
7888;BME280;3989;48.810;9.208;2022-09-21T11:51:06;99585.91;;;16.19;59.18
7888;BME280;3989;48.810;9.208;2022-09-21T11:54:02;99487.88;;;15.58;60.34
7888;BME280;3989;48.810;9.208;2022-09-21T11:56:40;99555.19;;;16.07;57.45
7888;BME280;3989;48.810;9.208;2022-09-21T11:59:52;99490.91;;;15.69;57.60
7888;BME280;3989;48.810;9.208;2022-09-21T12:09:53;99486.69;;;15.60;54.91
7888;BME280;3989;48.810;9.208;2022-09-21T12:12:40;99494.94;;;15.59;55.80
7888;BME280;3989;48.810;9.208;2022-09-21T12:15:38;99482.19;;;15.46;55.29
7888;BME280;3989;48.810;9.208;2022-09-21T12:18:17;99472.91;;;15.28;54.64
7888;BME280;3989;48.810;9.208;2022-09-21T12:21:00;99390.50;;;14.78;55.28
7888;BME280;3989;48.810;9.208;2022-09-21T12:23:40;99566.22;;;16.12;54.11
7888;BME280;3989;48.810;9.208;2022-09-21T12:26:19;99542.41;;;16.15;54.36
7888;BME280;3989;48.810;9.208;2022-09-21T12:28:52;99294.31;;;14.94;52.90
7888;BME280;3989;48.810;9.208;2022-09-21T12:31:23;99418.63;;;15.94;52.82
7888;BME280;3989;48.810;9.208;2022-09-21T12:34:02;99456.75;;;16.39;52.74
7888;BME280;3989;48.810;9.208;2022-09-21T12:36:34;99562.41;;;17.03;52.54
7888;BME280;3989;48.810;9.208;2022-09-21T12:39:14;99332.13;;;15.42;51.15
7888;BME280;3989;48.810;9.208;2022-09-21T12:41:58;99340.31;;;15.27;50.73
7888;BME280;3989;48.810;9.208;2022-09-21T12:44:33;99291.75;;;15.07;50.98
7888;BME280;3989;48.810;9.208;2022-09-21T12:47:20;99513.06;;;16.27;51.00
7888;BME280;3989;48.810;9.208;2022-09-21T12:50:01;99415.47;;;15.56;50.30
7888;BME280;3989;48.810;9.208;2022-09-21T12:52:30;99399.56;;;15.40;50.44
7888;BME280;3989;48.810;9.208;2022-09-21T12:55:07;99462.19;;;15.77;50.83
7888;BME280;3989;48.810;9.208;2022-09-21T12:57:49;99414.00;;;15.54;50.20
7888;BME280;3989;48.810;9.208;2022-09-21T13:00:19;99370.38;;;15.37;50.85
7888;BME280;3989;48.810;9.208;2022-09-21T13:02:50;99478.09;;;16.34;49.63
7888;BME280;3989;48.810;9.208;2022-09-21T13:05:37;99402.75;;;16.12;49.11
7888;BME280;3989;48.810;9.208;2022-09-21T13:08:10;99520.09;;;17.03;47.71
7888;BME280;3989;48.810;9.208;2022-09-21T13:10:55;99476.56;;;17.06;47.95
7888;BME280;3989;48.810;9.208;2022-09-21T13:13:26;99544.56;;;17.62;47.13
7888;BME280;3989;48.810;9.208;2022-09-21T13:15:55;99501.75;;;17.46;45.64
7888;BME280;3989;48.810;9.208;2022-09-21T13:18:25;99503.38;;;17.27;46.19
7888;BME280;3989;48.810;9.208;2022-09-21T13:20:54;99518.75;;;17.27;46.78
7888;BME280;3989;48.810;9.208;2022-09-21T13:23:26;99552.19;;;17.46;45.54
7888;BME280;3989;48.810;9.208;2022-09-21T13:26:02;99561.72;;;17.42;44.78
7888;BME280;3989;48.810;9.208;2022-09-21T13:31:54;99529.81;;;17.58;45.43
7888;BME280;3989;48.810;9.208;2022-09-21T13:34:28;99536.94;;;17.92;45.73
7888;BME280;3989;48.810;9.208;2022-09-21T13:45:54;99519.28;;;18.03;43.67
7888;BME280;3989;48.810;9.208;2022-09-21T13:48:25;99514.91;;;17.95;44.44
7888;BME280;3989;48.810;9.208;2022-09-21T13:50:56;99475.00;;;17.77;44.80
7888;BME280;3989;48.810;9.208;2022-09-21T13:53:30;99486.44;;;17.99;44.00
7888;BME280;3989;48.810;9.208;2022-09-21T13:56:04;99508.03;;;18.25;44.22
7888;BME280;3989;48.810;9.208;2022-09-21T13:58:35;99458.59;;;18.12;43.37
7888;BME280;3989;48.810;9.208;2022-09-21T14:01:14;99495.28;;;18.39;43.36
7888;BME280;3989;48.810;9.208;2022-09-21T14:03:43;99469.53;;;18.36;42.56
7888;BME280;3989;48.810;9.208;2022-09-21T14:06:13;99494.81;;;18.68;42.78
7888;BME280;3989;48.810;9.208;2022-09-21T14:08:48;99473.03;;;18.57;42.67
7888;BME280;3989;48.810;9.208;2022-09-21T14:11:21;99497.25;;;18.90;42.84
7888;BME280;3989;48.810;9.208;2022-09-21T14:14:04;99503.66;;;18.95;42.32
7888;BME280;3989;48.810;9.208;2022-09-21T14:17:03;99491.38;;;18.35;41.92
7888;BME280;3989;48.810;9.208;2022-09-21T14:22:38;99498.84;;;18.26;42.79
7888;BME280;3989;48.810;9.208;2022-09-21T14:25:45;99498.69;;;18.15;43.43
7888;BME280;3989;48.810;9.208;2022-09-21T14:28:14;99494.31;;;17.81;43.28
7888;BME280;3989;48.810;9.208;2022-09-21T14:30:48;99502.63;;;17.60;44.13
7888;BME280;3989;48.810;9.208;2022-09-21T14:33:25;99499.84;;;17.27;45.15
7888;BME280;3989;48.810;9.208;2022-09-21T14:35:54;99489.25;;;17.25;44.35
7888;BME280;3989;48.810;9.208;2022-09-21T14:38:24;99488.03;;;17.28;44.72
7888;BME280;3989;48.810;9.208;2022-09-21T14:40:56;99487.81;;;17.36;44.25
7888;BME280;3989;48.810;9.208;2022-09-21T14:43:26;99476.41;;;17.34;44.12
7888;BME280;3989;48.810;9.208;2022-09-21T14:46:07;99469.97;;;17.35;44.18
7888;BME280;3989;48.810;9.208;2022-09-21T14:48:45;99485.00;;;17.57;43.55
7888;BME280;3989;48.810;9.208;2022-09-21T14:51:20;99440.09;;;17.43;43.22
7888;BME280;3989;48.810;9.208;2022-09-21T14:54:05;99482.31;;;17.64;42.64
7888;BME280;3989;48.810;9.208;2022-09-21T14:56:48;99487.25;;;17.54;42.79
7888;BME280;3989;48.810;9.208;2022-09-21T14:59:41;99470.94;;;17.01;42.23
7888;BME280;3989;48.810;9.208;2022-09-21T15:02:16;99477.66;;;16.64;43.08
7888;BME280;3989;48.810;9.208;2022-09-21T15:05:08;99475.00;;;16.37;44.10